sensor_id;sensor_type;location;lat;lon;timestamp;temperature;humidity
22968;DHT22;11650;48.106;-1.696;2022-12-18T00:02:01;-1.80;99.90
22968;DHT22;11650;48.106;-1.696;2022-12-18T00:04:27;-1.80;99.90
22968;DHT22;11650;48.106;-1.696;2022-12-18T00:06:53;-1.80;99.90
22968;DHT22;11650;48.106;-1.696;2022-12-18T00:09:19;-1.90;99.90
22968;DHT22;11650;48.106;-1.696;2022-12-18T00:11:45;-1.90;99.90
22968;DHT22;11650;48.106;-1.696;2022-12-18T00:14:12;-1.80;99.90
22968;DHT22;11650;48.106;-1.696;2022-12-18T00:16:38;-1.90;99.90
22968;DHT22;11650;48.106;-1.696;2022-12-18T00:19:05;-1.80;99.90
22968;DHT22;11650;48.106;-1.696;2022-12-18T00:21:33;-1.80;99.90
22968;DHT22;11650;48.106;-1.696;2022-12-18T00:23:59;-1.80;99.90
22968;DHT22;11650;48.106;-1.696;2022-12-18T00:26:28;-1.90;99.90
22968;DHT22;11650;48.106;-1.696;2022-12-18T00:28:55;-1.80;99.90
22968;DHT22;11650;48.106;-1.696;2022-12-18T00:31:24;-1.90;99.90
22968;DHT22;11650;48.106;-1.696;2022-12-18T00:33:50;-1.80;99.90
22968;DHT22;11650;48.106;-1.696;2022-12-18T00:36:19;-1.80;99.90
22968;DHT22;11650;48.106;-1.696;2022-12-18T00:38:46;-1.80;99.90
22968;DHT22;11650;48.106;-1.696;2022-12-18T00:41:13;-1.70;99.90
22968;DHT22;11650;48.106;-1.696;2022-12-18T00:43:39;-1.80;99.90
22968;DHT22;11650;48.106;-1.696;2022-12-18T00:46:05;-1.70;99.90
22968;DHT22;11650;48.106;-1.696;2022-12-18T00:48:31;-1.80;99.90
22968;DHT22;11650;48.106;-1.696;2022-12-18T00:50:57;-1.70;99.90
22968;DHT22;11650;48.106;-1.696;2022-12-18T00:53:23;-1.70;99.90
22968;DHT22;11650;48.106;-1.696;2022-12-18T00:55:48;-1.70;99.90
22968;DHT22;11650;48.106;-1.696;2022-12-18T00:58:16;-1.70;99.90
22968;DHT22;11650;48.106;-1.696;2022-12-18T01:00:42;-1.70;99.90
22968;DHT22;11650;48.106;-1.696;2022-12-18T01:03:08;-1.60;99.90
22968;DHT22;11650;48.106;-1.696;2022-12-18T01:05:38;-1.70;99.90
22968;DHT22;11650;48.106;-1.696;2022-12-18T01:08:04;-1.70;99.90
22968;DHT22;11650;48.106;-1.696;2022-12-18T01:10:29;-1.80;99.90
22968;DHT22;11650;48.106;-1.696;2022-12-18T01:12:55;-1.70;99.90
22968;DHT22;11650;48.106;-1.696;2022-12-18T01:15:21;-1.70;99.90
22968;DHT22;11650;48.106;-1.696;2022-12-18T01:17:46;-1.80;99.90
22968;DHT22;11650;48.106;-1.696;2022-12-18T01:20:12;-1.90;99.90
22968;DHT22;11650;48.106;-1.696;2022-12-18T01:22:38;-1.80;99.90
22968;DHT22;11650;48.106;-1.696;2022-12-18T01:25:05;-1.80;99.90
22968;DHT22;11650;48.106;-1.696;2022-12-18T01:27:32;-1.90;99.90
22968;DHT22;11650;48.106;-1.696;2022-12-18T01:29:58;-1.80;99.90
22968;DHT22;11650;48.106;-1.696;2022-12-18T01:32:23;-1.90;99.90
22968;DHT22;11650;48.106;-1.696;2022-12-18T01:34:49;-1.80;99.90
22968;DHT22;11650;48.106;-1.696;2022-12-18T01:37:15;-1.80;99.90
22968;DHT22;11650;48.106;-1.696;2022-12-18T01:39:40;-1.80;99.90
22968;DHT22;11650;48.106;-1.696;2022-12-18T01:42:14;-1.80;99.90
22968;DHT22;11650;48.106;-1.696;2022-12-18T01:47:53;-1.90;99.90
22968;DHT22;11650;48.106;-1.696;2022-12-18T01:50:38;-1.90;99.90
22968;DHT22;11650;48.106;-1.696;2022-12-18T01:53:15;-1.90;99.90
22968;DHT22;11650;48.106;-1.696;2022-12-18T01:55:48;-1.90;99.90
22968;DHT22;11650;48.106;-1.696;2022-12-18T01:58:16;-1.90;99.90
22968;DHT22;11650;48.106;-1.696;2022-12-18T02:00:42;-1.90;99.90
22968;DHT22;11650;48.106;-1.696;2022-12-18T02:03:07;-1.90;99.90
22968;DHT22;11650;48.106;-1.696;2022-12-18T02:05:44;-1.90;99.90
22968;DHT22;11650;48.106;-1.696;2022-12-18T02:13:45;-1.90;99.90
22968;DHT22;11650;48.106;-1.696;2022-12-18T02:16:34;-1.90;99.90
22968;DHT22;11650;48.106;-1.696;2022-12-18T02:24:45;-1.80;99.90
22968;DHT22;11650;48.106;-1.696;2022-12-18T02:27:14;-1.90;99.90
22968;DHT22;11650;48.106;-1.696;2022-12-18T02:29:51;-1.80;99.90
22968;DHT22;11650;48.106;-1.696;2022-12-18T02:32:22;-1.80;99.90
22968;DHT22;11650;48.106;-1.696;2022-12-18T02:34:51;-1.90;99.90
22968;DHT22;11650;48.106;-1.696;2022-12-18T02:37:18;-1.80;99.90
22968;DHT22;11650;48.106;-1.696;2022-12-18T02:39:48;-1.80;99.90
22968;DHT22;11650;48.106;-1.696;2022-12-18T02:42:16;-1.80;99.90
22968;DHT22;11650;48.106;-1.696;2022-12-18T02:44:44;-1.80;99.90
22968;DHT22;11650;48.106;-1.696;2022-12-18T02:47:11;-1.90;99.90
22968;DHT22;11650;48.106;-1.696;2022-12-18T02:57:49;-1.80;99.90
22968;DHT22;11650;48.106;-1.696;2022-12-18T03:02:51;-1.80;99.90
22968;DHT22;11650;48.106;-1.696;2022-12-18T03:05:24;-1.80;99.90
22968;DHT22;11650;48.106;-1.696;2022-12-18T03:08:18;-1.80;99.90
22968;DHT22;11650;48.106;-1.696;2022-12-18T03:10:54;-1.80;99.90
22968;DHT22;11650;48.106;-1.696;2022-12-18T03:13:52;-1.70;99.90
22968;DHT22;11650;48.106;-1.696;2022-12-18T03:16:27;-1.70;99.90
22968;DHT22;11650;48.106;-1.696;2022-12-18T03:19:10;-1.60;99.90
22968;DHT22;11650;48.106;-1.696;2022-12-18T03:21:48;-1.60;99.90
22968;DHT22;11650;48.106;-1.696;2022-12-18T03:24:16;-1.60;99.90
22968;DHT22;11650;48.106;-1.696;2022-12-18T03:26:46;-1.60;99.90
22968;DHT22;11650;48.106;-1.696;2022-12-18T03:29:21;-1.50;99.90
22968;DHT22;11650;48.106;-1.696;2022-12-18T03:31:53;-1.50;99.90
22968;DHT22;11650;48.106;-1.696;2022-12-18T03:34:24;-1.40;99.90
22968;DHT22;11650;48.106;-1.696;2022-12-18T03:36:52;-1.40;99.90
22968;DHT22;11650;48.106;-1.696;2022-12-18T03:39:18;-1.40;99.90
22968;DHT22;11650;48.106;-1.696;2022-12-18T03:41:51;-1.40;99.90
22968;DHT22;11650;48.106;-1.696;2022-12-18T03:47:15;-1.30;99.90
22968;DHT22;11650;48.106;-1.696;2022-12-18T03:54:45;-1.20;99.90
22968;DHT22;11650;48.106;-1.696;2022-12-18T03:57:20;-1.20;99.90
22968;DHT22;11650;48.106;-1.696;2022-12-18T03:59:50;-1.20;99.90
22968;DHT22;11650;48.106;-1.696;2022-12-18T04:02:17;-1.10;99.90
22968;DHT22;11650;48.106;-1.696;2022-12-18T04:04:44;-1.10;99.90
22968;DHT22;11650;48.106;-1.696;2022-12-18T04:07:13;-1.10;99.90
22968;DHT22;11650;48.106;-1.696;2022-12-18T04:09:40;-1.20;99.90
22968;DHT22;11650;48.106;-1.696;2022-12-18T04:12:06;-1.10;99.90
22968;DHT22;11650;48.106;-1.696;2022-12-18T04:14:33;-1.20;99.90
22968;DHT22;11650;48.106;-1.696;2022-12-18T04:17:01;-1.10;99.90
22968;DHT22;11650;48.106;-1.696;2022-12-18T04:19:27;-1.00;99.90
22968;DHT22;11650;48.106;-1.696;2022-12-18T04:21:53;-1.00;99.90
22968;DHT22;11650;48.106;-1.696;2022-12-18T04:24:19;-1.10;99.90
22968;DHT22;11650;48.106;-1.696;2022-12-18T04:26:44;-1.10;99.90
22968;DHT22;11650;48.106;-1.696;2022-12-18T04:29:10;-1.10;99.90
22968;DHT22;11650;48.106;-1.696;2022-12-18T04:31:36;-1.10;99.90
22968;DHT22;11650;48.106;-1.696;2022-12-18T04:34:02;-1.00;99.90
22968;DHT22;11650;48.106;-1.696;2022-12-18T04:36:28;-1.00;99.90
22968;DHT22;11650;48.106;-1.696;2022-12-18T04:38:54;-1.10;99.90
22968;DHT22;11650;48.106;-1.696;2022-12-18T04:41:19;-1.10;99.90
22968;DHT22;11650;48.106;-1.696;2022-12-18T04:43:45;-1.10;99.90
22968;DHT22;11650;48.106;-1.696;2022-12-18T04:46:11;-1.00;99.90
22968;DHT22;11650;48.106;-1.696;2022-12-18T04:48:37;-1.00;99.90
22968;DHT22;11650;48.106;-1.696;2022-12-18T04:51:04;-0.90;99.90
22968;DHT22;11650;48.106;-1.696;2022-12-18T04:53:30;-0.90;99.90
22968;DHT22;11650;48.106;-1.696;2022-12-18T04:56:10;-0.90;99.90
22968;DHT22;11650;48.106;-1.696;2022-12-18T04:58:37;-0.80;99.90
22968;DHT22;11650;48.106;-1.696;2022-12-18T05:01:03;-0.80;99.90
22968;DHT22;11650;48.106;-1.696;2022-12-18T05:03:29;-0.90;99.90
22968;DHT22;11650;48.106;-1.696;2022-12-18T05:05:55;-0.90;99.90
22968;DHT22;11650;48.106;-1.696;2022-12-18T05:08:20;-0.80;99.90
22968;DHT22;11650;48.106;-1.696;2022-12-18T05:10:46;-0.80;99.90
22968;DHT22;11650;48.106;-1.696;2022-12-18T05:13:12;-0.90;99.90
22968;DHT22;11650;48.106;-1.696;2022-12-18T05:15:37;-0.90;99.90
22968;DHT22;11650;48.106;-1.696;2022-12-18T05:18:03;-0.90;99.90
22968;DHT22;11650;48.106;-1.696;2022-12-18T05:20:29;-0.80;99.90
22968;DHT22;11650;48.106;-1.696;2022-12-18T05:22:56;-0.80;99.90
22968;DHT22;11650;48.106;-1.696;2022-12-18T05:25:22;-0.80;99.90
22968;DHT22;11650;48.106;-1.696;2022-12-18T05:27:48;-0.80;99.90
22968;DHT22;11650;48.106;-1.696;2022-12-18T05:30:15;-0.80;99.90
22968;DHT22;11650;48.106;-1.696;2022-12-18T05:32:41;-0.70;99.90
22968;DHT22;11650;48.106;-1.696;2022-12-18T05:35:08;-0.70;99.90
22968;DHT22;11650;48.106;-1.696;2022-12-18T05:37:34;-0.70;99.90
22968;DHT22;11650;48.106;-1.696;2022-12-18T05:40:00;-0.60;99.90
22968;DHT22;11650;48.106;-1.696;2022-12-18T05:42:26;-0.60;99.90
22968;DHT22;11650;48.106;-1.696;2022-12-18T05:44:52;-0.70;99.90
22968;DHT22;11650;48.106;-1.696;2022-12-18T05:47:17;-0.70;99.90
22968;DHT22;11650;48.106;-1.696;2022-12-18T05:49:43;-0.60;99.90
22968;DHT22;11650;48.106;-1.696;2022-12-18T05:52:09;-0.60;99.90
22968;DHT22;11650;48.106;-1.696;2022-12-18T05:54:34;-0.60;99.90
22968;DHT22;11650;48.106;-1.696;2022-12-18T05:57:00;-0.60;99.90
22968;DHT22;11650;48.106;-1.696;2022-12-18T05:59:25;-0.50;99.90
22968;DHT22;11650;48.106;-1.696;2022-12-18T06:01:51;-0.50;99.90
22968;DHT22;11650;48.106;-1.696;2022-12-18T06:04:16;-0.50;99.90
22968;DHT22;11650;48.106;-1.696;2022-12-18T06:06:42;-0.60;99.90
22968;DHT22;11650;48.106;-1.696;2022-12-18T06:09:08;-0.50;99.90
22968;DHT22;11650;48.106;-1.696;2022-12-18T06:11:36;-0.50;99.90
22968;DHT22;11650;48.106;-1.696;2022-12-18T06:14:03;-0.40;99.90
22968;DHT22;11650;48.106;-1.696;2022-12-18T06:16:30;-0.40;99.90
22968;DHT22;11650;48.106;-1.696;2022-12-18T06:18:59;-0.40;99.90
22968;DHT22;11650;48.106;-1.696;2022-12-18T06:21:26;-0.40;99.90
22968;DHT22;11650;48.106;-1.696;2022-12-18T06:23:51;-0.50;99.90
22968;DHT22;11650;48.106;-1.696;2022-12-18T06:26:17;-0.40;99.90
22968;DHT22;11650;48.106;-1.696;2022-12-18T06:28:43;-0.40;99.90
22968;DHT22;11650;48.106;-1.696;2022-12-18T06:31:09;-0.30;99.90
22968;DHT22;11650;48.106;-1.696;2022-12-18T06:33:36;-0.30;99.90
22968;DHT22;11650;48.106;-1.696;2022-12-18T06:36:12;-0.30;99.90
22968;DHT22;11650;48.106;-1.696;2022-12-18T06:38:41;-0.30;99.90
22968;DHT22;11650;48.106;-1.696;2022-12-18T06:41:17;-0.30;99.90
22968;DHT22;11650;48.106;-1.696;2022-12-18T06:43:43;-0.30;99.90
22968;DHT22;11650;48.106;-1.696;2022-12-18T06:46:10;-0.20;99.90
22968;DHT22;11650;48.106;-1.696;2022-12-18T06:48:36;-0.20;99.90
22968;DHT22;11650;48.106;-1.696;2022-12-18T06:51:01;-0.20;99.90
22968;DHT22;11650;48.106;-1.696;2022-12-18T06:53:27;-0.20;99.90
22968;DHT22;11650;48.106;-1.696;2022-12-18T06:55:59;-0.20;99.90
22968;DHT22;11650;48.106;-1.696;2022-12-18T06:58:24;-0.20;99.90
22968;DHT22;11650;48.106;-1.696;2022-12-18T07:00:50;-0.10;99.90
22968;DHT22;11650;48.106;-1.696;2022-12-18T07:03:17;-0.20;99.90
22968;DHT22;11650;48.106;-1.696;2022-12-18T07:05:42;-0.20;99.90
22968;DHT22;11650;48.106;-1.696;2022-12-18T07:08:08;-0.20;99.90
22968;DHT22;11650;48.106;-1.696;2022-12-18T07:10:40;-0.20;99.90
22968;DHT22;11650;48.106;-1.696;2022-12-18T07:13:05;-0.10;99.90
22968;DHT22;11650;48.106;-1.696;2022-12-18T07:15:31;-0.10;99.90
22968;DHT22;11650;48.106;-1.696;2022-12-18T07:17:56;-0.10;99.90
22968;DHT22;11650;48.106;-1.696;2022-12-18T07:20:22;-0.10;99.90
22968;DHT22;11650;48.106;-1.696;2022-12-18T07:22:48;-0.10;99.90
22968;DHT22;11650;48.106;-1.696;2022-12-18T07:25:13;0.00;99.90
22968;DHT22;11650;48.106;-1.696;2022-12-18T07:27:39;0.00;99.90
22968;DHT22;11650;48.106;-1.696;2022-12-18T07:30:05;0.00;99.90
22968;DHT22;11650;48.106;-1.696;2022-12-18T07:32:31;0.00;99.90
22968;DHT22;11650;48.106;-1.696;2022-12-18T07:34:57;0.00;99.90
22968;DHT22;11650;48.106;-1.696;2022-12-18T07:37:22;0.10;99.90
22968;DHT22;11650;48.106;-1.696;2022-12-18T07:39:48;0.10;99.90
22968;DHT22;11650;48.106;-1.696;2022-12-18T07:42:13;0.10;99.90
22968;DHT22;11650;48.106;-1.696;2022-12-18T07:45:01;0.00;99.90
22968;DHT22;11650;48.106;-1.696;2022-12-18T07:47:28;0.10;99.90
22968;DHT22;11650;48.106;-1.696;2022-12-18T07:49:54;0.10;99.90
22968;DHT22;11650;48.106;-1.696;2022-12-18T07:52:19;0.20;99.90
22968;DHT22;11650;48.106;-1.696;2022-12-18T07:54:45;0.20;99.90
22968;DHT22;11650;48.106;-1.696;2022-12-18T07:57:11;0.20;99.90
22968;DHT22;11650;48.106;-1.696;2022-12-18T07:59:36;0.20;99.90
22968;DHT22;11650;48.106;-1.696;2022-12-18T08:02:02;0.20;99.90
22968;DHT22;11650;48.106;-1.696;2022-12-18T08:04:28;0.30;99.90
22968;DHT22;11650;48.106;-1.696;2022-12-18T08:06:54;0.30;99.90
22968;DHT22;11650;48.106;-1.696;2022-12-18T08:09:19;0.30;99.90
22968;DHT22;11650;48.106;-1.696;2022-12-18T08:11:45;0.30;99.90
22968;DHT22;11650;48.106;-1.696;2022-12-18T08:14:10;0.30;99.90
22968;DHT22;11650;48.106;-1.696;2022-12-18T08:16:36;0.30;99.90
22968;DHT22;11650;48.106;-1.696;2022-12-18T08:19:02;0.30;99.90
22968;DHT22;11650;48.106;-1.696;2022-12-18T08:21:30;0.40;99.90
22968;DHT22;11650;48.106;-1.696;2022-12-18T08:23:58;0.40;99.90
22968;DHT22;11650;48.106;-1.696;2022-12-18T08:26:25;0.40;99.90
22968;DHT22;11650;48.106;-1.696;2022-12-18T08:28:54;0.50;99.90
22968;DHT22;11650;48.106;-1.696;2022-12-18T08:31:20;0.50;99.90
22968;DHT22;11650;48.106;-1.696;2022-12-18T08:33:49;0.50;99.90
22968;DHT22;11650;48.106;-1.696;2022-12-18T08:36:15;0.50;99.90
22968;DHT22;11650;48.106;-1.696;2022-12-18T08:38:40;0.60;99.90
22968;DHT22;11650;48.106;-1.696;2022-12-18T08:41:09;0.60;99.90
22968;DHT22;11650;48.106;-1.696;2022-12-18T08:43:35;0.70;99.90
22968;DHT22;11650;48.106;-1.696;2022-12-18T08:46:20;0.70;99.90
22968;DHT22;11650;48.106;-1.696;2022-12-18T08:48:46;0.70;99.90
22968;DHT22;11650;48.106;-1.696;2022-12-18T08:51:12;0.70;99.90
22968;DHT22;11650;48.106;-1.696;2022-12-18T08:53:38;0.80;99.90
22968;DHT22;11650;48.106;-1.696;2022-12-18T08:56:04;0.80;99.90
22968;DHT22;11650;48.106;-1.696;2022-12-18T08:58:30;0.80;99.90
22968;DHT22;11650;48.106;-1.696;2022-12-18T09:01:06;0.90;99.90
22968;DHT22;11650;48.106;-1.696;2022-12-18T09:03:33;0.90;99.90
22968;DHT22;11650;48.106;-1.696;2022-12-18T09:05:59;0.90;99.90
22968;DHT22;11650;48.106;-1.696;2022-12-18T09:08:28;0.90;99.90
22968;DHT22;11650;48.106;-1.696;2022-12-18T09:10:54;1.00;99.90
22968;DHT22;11650;48.106;-1.696;2022-12-18T09:13:20;1.00;99.90
22968;DHT22;11650;48.106;-1.696;2022-12-18T09:15:50;1.10;99.90
22968;DHT22;11650;48.106;-1.696;2022-12-18T09:18:16;1.10;99.90
22968;DHT22;11650;48.106;-1.696;2022-12-18T09:20:43;1.10;99.90
22968;DHT22;11650;48.106;-1.696;2022-12-18T09:23:09;1.10;99.90
22968;DHT22;11650;48.106;-1.696;2022-12-18T09:25:36;1.20;99.90
22968;DHT22;11650;48.106;-1.696;2022-12-18T09:28:04;1.10;99.90
22968;DHT22;11650;48.106;-1.696;2022-12-18T09:30:30;1.20;99.90
22968;DHT22;11650;48.106;-1.696;2022-12-18T09:32:58;1.20;99.90
22968;DHT22;11650;48.106;-1.696;2022-12-18T09:35:24;1.20;99.90
22968;DHT22;11650;48.106;-1.696;2022-12-18T09:37:50;1.20;99.90
22968;DHT22;11650;48.106;-1.696;2022-12-18T09:40:21;1.30;99.90
22968;DHT22;11650;48.106;-1.696;2022-12-18T09:42:55;1.30;99.90
22968;DHT22;11650;48.106;-1.696;2022-12-18T09:45:23;1.30;99.90
22968;DHT22;11650;48.106;-1.696;2022-12-18T09:47:51;1.30;99.90
22968;DHT22;11650;48.106;-1.696;2022-12-18T09:50:29;1.40;99.90
22968;DHT22;11650;48.106;-1.696;2022-12-18T09:52:58;1.40;99.90
22968;DHT22;11650;48.106;-1.696;2022-12-18T09:55:37;1.40;99.90
22968;DHT22;11650;48.106;-1.696;2022-12-18T09:58:35;1.40;99.90
22968;DHT22;11650;48.106;-1.696;2022-12-18T10:01:24;1.40;99.90
22968;DHT22;11650;48.106;-1.696;2022-12-18T10:03:50;1.50;99.90
22968;DHT22;11650;48.106;-1.696;2022-12-18T10:11:44;1.50;99.90
22968;DHT22;11650;48.106;-1.696;2022-12-18T10:14:41;1.60;99.90
22968;DHT22;11650;48.106;-1.696;2022-12-18T10:23:04;1.70;99.90
22968;DHT22;11650;48.106;-1.696;2022-12-18T10:25:53;1.70;99.90
22968;DHT22;11650;48.106;-1.696;2022-12-18T10:28:21;1.70;99.90
22968;DHT22;11650;48.106;-1.696;2022-12-18T10:30:48;1.70;99.90
22968;DHT22;11650;48.106;-1.696;2022-12-18T10:33:17;1.70;99.90
22968;DHT22;11650;48.106;-1.696;2022-12-18T10:35:43;1.70;99.90
22968;DHT22;11650;48.106;-1.696;2022-12-18T10:41:03;1.80;99.90
22968;DHT22;11650;48.106;-1.696;2022-12-18T10:43:34;1.80;99.90
22968;DHT22;11650;48.106;-1.696;2022-12-18T10:46:04;1.80;99.90
22968;DHT22;11650;48.106;-1.696;2022-12-18T10:48:36;1.80;99.90
22968;DHT22;11650;48.106;-1.696;2022-12-18T10:51:08;1.80;99.90
22968;DHT22;11650;48.106;-1.696;2022-12-18T10:53:36;1.80;99.90
22968;DHT22;11650;48.106;-1.696;2022-12-18T10:56:04;1.90;99.90
22968;DHT22;11650;48.106;-1.696;2022-12-18T10:58:32;1.90;99.90
22968;DHT22;11650;48.106;-1.696;2022-12-18T11:01:04;1.90;99.90
22968;DHT22;11650;48.106;-1.696;2022-12-18T11:03:42;1.90;99.90
22968;DHT22;11650;48.106;-1.696;2022-12-18T11:06:19;2.00;99.90
22968;DHT22;11650;48.106;-1.696;2022-12-18T11:09:05;2.00;99.90
22968;DHT22;11650;48.106;-1.696;2022-12-18T11:11:32;2.00;99.90
22968;DHT22;11650;48.106;-1.696;2022-12-18T11:14:06;2.00;99.90
22968;DHT22;11650;48.106;-1.696;2022-12-18T11:16:44;2.10;99.90
22968;DHT22;11650;48.106;-1.696;2022-12-18T11:21:47;2.10;99.90
22968;DHT22;11650;48.106;-1.696;2022-12-18T11:26:51;2.20;99.90
22968;DHT22;11650;48.106;-1.696;2022-12-18T11:29:22;2.20;99.90
22968;DHT22;11650;48.106;-1.696;2022-12-18T11:31:49;2.30;99.90
22968;DHT22;11650;48.106;-1.696;2022-12-18T11:34:24;2.30;99.90
22968;DHT22;11650;48.106;-1.696;2022-12-18T11:36:53;2.30;99.90
22968;DHT22;11650;48.106;-1.696;2022-12-18T11:41:58;2.40;99.90
22968;DHT22;11650;48.106;-1.696;2022-12-18T11:44:55;2.40;99.90
22968;DHT22;11650;48.106;-1.696;2022-12-18T11:49:56;2.40;99.90
22968;DHT22;11650;48.106;-1.696;2022-12-18T11:52:37;2.40;99.90
22968;DHT22;11650;48.106;-1.696;2022-12-18T11:55:15;2.40;99.90
22968;DHT22;11650;48.106;-1.696;2022-12-18T11:57:57;2.50;99.90
22968;DHT22;11650;48.106;-1.696;2022-12-18T12:00:26;2.50;99.90
22968;DHT22;11650;48.106;-1.696;2022-12-18T12:03:14;2.60;99.90
22968;DHT22;11650;48.106;-1.696;2022-12-18T12:14:42;2.80;99.90
22968;DHT22;11650;48.106;-1.696;2022-12-18T12:25:59;2.90;99.90
22968;DHT22;11650;48.106;-1.696;2022-12-18T12:28:49;2.90;99.90
22968;DHT22;11650;48.106;-1.696;2022-12-18T12:34:22;3.00;99.90
22968;DHT22;11650;48.106;-1.696;2022-12-18T12:39:40;3.10;99.90
22968;DHT22;11650;48.106;-1.696;2022-12-18T12:42:32;3.10;99.90
22968;DHT22;11650;48.106;-1.696;2022-12-18T12:45:39;3.10;99.90
22968;DHT22;11650;48.106;-1.696;2022-12-18T12:48:10;3.20;99.90
22968;DHT22;11650;48.106;-1.696;2022-12-18T12:50:40;3.20;99.90
22968;DHT22;11650;48.106;-1.696;2022-12-18T12:53:09;3.20;99.90
22968;DHT22;11650;48.106;-1.696;2022-12-18T12:55:37;3.20;99.90
22968;DHT22;11650;48.106;-1.696;2022-12-18T13:01:14;3.40;99.90
22968;DHT22;11650;48.106;-1.696;2022-12-18T13:03:55;3.50;99.90
22968;DHT22;11650;48.106;-1.696;2022-12-18T13:06:47;3.60;99.90
22968;DHT22;11650;48.106;-1.696;2022-12-18T13:09:15;3.70;99.90
22968;DHT22;11650;48.106;-1.696;2022-12-18T13:11:43;3.80;99.90
22968;DHT22;11650;48.106;-1.696;2022-12-18T13:14:36;3.70;99.90
22968;DHT22;11650;48.106;-1.696;2022-12-18T13:20:31;3.80;99.90
22968;DHT22;11650;48.106;-1.696;2022-12-18T13:25:36;3.70;99.90
22968;DHT22;11650;48.106;-1.696;2022-12-18T13:28:20;3.70;99.90
22968;DHT22;11650;48.106;-1.696;2022-12-18T13:30:49;3.70;99.90
22968;DHT22;11650;48.106;-1.696;2022-12-18T13:38:33;3.80;99.90
22968;DHT22;11650;48.106;-1.696;2022-12-18T13:43:53;3.90;99.90
22968;DHT22;11650;48.106;-1.696;2022-12-18T13:46:25;3.90;99.90
22968;DHT22;11650;48.106;-1.696;2022-12-18T13:48:57;3.90;99.90
22968;DHT22;11650;48.106;-1.696;2022-12-18T13:51:25;4.00;99.90
22968;DHT22;11650;48.106;-1.696;2022-12-18T13:54:06;4.00;99.90
22968;DHT22;11650;48.106;-1.696;2022-12-18T13:56:44;4.00;99.90
22968;DHT22;11650;48.106;-1.696;2022-12-18T13:59:22;4.00;99.90
22968;DHT22;11650;48.106;-1.696;2022-12-18T14:01:52;4.10;99.90
22968;DHT22;11650;48.106;-1.696;2022-12-18T14:04:33;4.10;99.90
22968;DHT22;11650;48.106;-1.696;2022-12-18T14:07:07;4.00;99.90
22968;DHT22;11650;48.106;-1.696;2022-12-18T14:09:36;4.10;99.90
22968;DHT22;11650;48.106;-1.696;2022-12-18T14:12:03;4.00;99.90
22968;DHT22;11650;48.106;-1.696;2022-12-18T14:14:49;4.10;99.90
22968;DHT22;11650;48.106;-1.696;2022-12-18T14:17:17;4.10;99.90
22968;DHT22;11650;48.106;-1.696;2022-12-18T14:19:45;4.10;99.90
22968;DHT22;11650;48.106;-1.696;2022-12-18T14:22:20;4.20;99.90
22968;DHT22;11650;48.106;-1.696;2022-12-18T14:24:47;4.20;99.90
22968;DHT22;11650;48.106;-1.696;2022-12-18T14:27:36;4.30;99.90
22968;DHT22;11650;48.106;-1.696;2022-12-18T14:30:24;4.40;99.90
22968;DHT22;11650;48.106;-1.696;2022-12-18T14:35:40;4.60;99.90
22968;DHT22;11650;48.106;-1.696;2022-12-18T14:41:16;4.60;99.90
22968;DHT22;11650;48.106;-1.696;2022-12-18T14:43:44;4.60;99.90
22968;DHT22;11650;48.106;-1.696;2022-12-18T14:48:58;4.70;99.90
22968;DHT22;11650;48.106;-1.696;2022-12-18T14:51:26;4.70;99.90
22968;DHT22;11650;48.106;-1.696;2022-12-18T14:54:00;4.70;99.90
22968;DHT22;11650;48.106;-1.696;2022-12-18T14:56:34;4.70;99.90
22968;DHT22;11650;48.106;-1.696;2022-12-18T14:59:04;4.70;99.90
22968;DHT22;11650;48.106;-1.696;2022-12-18T15:01:47;4.80;99.90
22968;DHT22;11650;48.106;-1.696;2022-12-18T15:04:24;4.80;99.90
22968;DHT22;11650;48.106;-1.696;2022-12-18T15:09:31;4.80;99.90
22968;DHT22;11650;48.106;-1.696;2022-12-18T15:11:59;4.90;99.90
22968;DHT22;11650;48.106;-1.696;2022-12-18T15:14:39;4.90;99.90
22968;DHT22;11650;48.106;-1.696;2022-12-18T15:17:28;4.90;99.90
22968;DHT22;11650;48.106;-1.696;2022-12-18T15:20:03;5.00;99.90
22968;DHT22;11650;48.106;-1.696;2022-12-18T15:22:35;5.00;99.90
22968;DHT22;11650;48.106;-1.696;2022-12-18T15:25:02;5.00;99.90
22968;DHT22;11650;48.106;-1.696;2022-12-18T15:27:34;5.00;99.90
22968;DHT22;11650;48.106;-1.696;2022-12-18T15:32:33;5.10;99.90
22968;DHT22;11650;48.106;-1.696;2022-12-18T15:35:21;5.10;99.90
22968;DHT22;11650;48.106;-1.696;2022-12-18T15:37:48;5.20;99.90
22968;DHT22;11650;48.106;-1.696;2022-12-18T15:40:23;5.20;99.90
22968;DHT22;11650;48.106;-1.696;2022-12-18T15:42:52;5.20;99.90
22968;DHT22;11650;48.106;-1.696;2022-12-18T15:45:37;5.30;99.90
22968;DHT22;11650;48.106;-1.696;2022-12-18T15:48:15;5.30;99.90
22968;DHT22;11650;48.106;-1.696;2022-12-18T15:50:42;5.40;99.90
22968;DHT22;11650;48.106;-1.696;2022-12-18T15:53:08;5.50;99.90
22968;DHT22;11650;48.106;-1.696;2022-12-18T15:55:34;5.50;99.90
22968;DHT22;11650;48.106;-1.696;2022-12-18T15:58:38;5.50;99.90
22968;DHT22;11650;48.106;-1.696;2022-12-18T16:01:09;5.60;99.90
22968;DHT22;11650;48.106;-1.696;2022-12-18T16:03:35;5.60;99.90
22968;DHT22;11650;48.106;-1.696;2022-12-18T16:06:01;5.60;99.90
22968;DHT22;11650;48.106;-1.696;2022-12-18T16:08:28;5.60;99.90
22968;DHT22;11650;48.106;-1.696;2022-12-18T16:10:55;5.70;99.90
22968;DHT22;11650;48.106;-1.696;2022-12-18T16:13:21;5.60;99.90
22968;DHT22;11650;48.106;-1.696;2022-12-18T16:15:47;5.80;99.90
22968;DHT22;11650;48.106;-1.696;2022-12-18T16:18:12;5.80;99.90
22968;DHT22;11650;48.106;-1.696;2022-12-18T16:20:38;5.80;99.90
22968;DHT22;11650;48.106;-1.696;2022-12-18T16:23:04;5.70;99.90
22968;DHT22;11650;48.106;-1.696;2022-12-18T16:25:30;5.80;99.90
22968;DHT22;11650;48.106;-1.696;2022-12-18T16:27:56;5.80;99.90
22968;DHT22;11650;48.106;-1.696;2022-12-18T16:30:25;5.90;99.90
22968;DHT22;11650;48.106;-1.696;2022-12-18T16:32:53;5.90;99.90
22968;DHT22;11650;48.106;-1.696;2022-12-18T16:35:19;5.90;99.90
22968;DHT22;11650;48.106;-1.696;2022-12-18T16:37:44;5.90;99.90
22968;DHT22;11650;48.106;-1.696;2022-12-18T16:40:12;6.00;99.90
22968;DHT22;11650;48.106;-1.696;2022-12-18T16:42:40;6.00;99.90
22968;DHT22;11650;48.106;-1.696;2022-12-18T16:45:08;6.00;99.90
22968;DHT22;11650;48.106;-1.696;2022-12-18T16:47:34;6.10;99.90
22968;DHT22;11650;48.106;-1.696;2022-12-18T16:50:00;6.10;99.90
22968;DHT22;11650;48.106;-1.696;2022-12-18T16:52:25;6.00;99.90
22968;DHT22;11650;48.106;-1.696;2022-12-18T16:54:51;6.10;99.90
22968;DHT22;11650;48.106;-1.696;2022-12-18T16:57:19;6.10;99.90
22968;DHT22;11650;48.106;-1.696;2022-12-18T16:59:45;6.20;99.90
22968;DHT22;11650;48.106;-1.696;2022-12-18T17:02:13;6.20;99.90
22968;DHT22;11650;48.106;-1.696;2022-12-18T17:04:42;6.20;99.90
22968;DHT22;11650;48.106;-1.696;2022-12-18T17:07:08;6.20;99.90
22968;DHT22;11650;48.106;-1.696;2022-12-18T17:09:35;6.30;99.90
22968;DHT22;11650;48.106;-1.696;2022-12-18T17:12:00;6.30;99.90
22968;DHT22;11650;48.106;-1.696;2022-12-18T17:14:26;6.30;99.90
22968;DHT22;11650;48.106;-1.696;2022-12-18T17:16:53;6.30;99.90
22968;DHT22;11650;48.106;-1.696;2022-12-18T17:19:19;6.50;99.90
22968;DHT22;11650;48.106;-1.696;2022-12-18T17:21:49;6.40;99.90
22968;DHT22;11650;48.106;-1.696;2022-12-18T17:24:16;6.50;99.90
22968;DHT22;11650;48.106;-1.696;2022-12-18T17:26:42;6.50;99.90
22968;DHT22;11650;48.106;-1.696;2022-12-18T17:29:11;6.60;99.90
22968;DHT22;11650;48.106;-1.696;2022-12-18T17:31:38;6.50;99.90
22968;DHT22;11650;48.106;-1.696;2022-12-18T17:34:04;6.50;99.90